sensor_id;sensor_type;location;lat;lon;timestamp;P1;durP1;ratioP1;P2;durP2;ratioP2
21432;SDS011;18592;49.708;10.900;2022-07-04T00:00:47;1.38;;;1.15;;
21432;SDS011;18592;49.708;10.900;2022-07-04T00:02:49;1.17;;;1.08;;
21432;SDS011;18592;49.708;10.900;2022-07-04T00:04:52;2.20;;;1.42;;
21432;SDS011;18592;49.708;10.900;2022-07-04T00:06:54;1.25;;;1.15;;
21432;SDS011;18592;49.708;10.900;2022-07-04T00:08:56;1.60;;;1.38;;
21432;SDS011;18592;49.708;10.900;2022-07-04T00:10:57;3.05;;;1.40;;
21432;SDS011;18592;49.708;10.900;2022-07-04T00:12:59;1.70;;;1.38;;
21432;SDS011;18592;49.708;10.900;2022-07-04T00:15:01;1.38;;;1.27;;
21432;SDS011;18592;49.708;10.900;2022-07-04T00:17:04;2.00;;;1.10;;
21432;SDS011;18592;49.708;10.900;2022-07-04T00:19:06;1.48;;;1.23;;
21432;SDS011;18592;49.708;10.900;2022-07-04T00:21:08;2.15;;;1.55;;
21432;SDS011;18592;49.708;10.900;2022-07-04T00:23:09;1.33;;;1.20;;
21432;SDS011;18592;49.708;10.900;2022-07-04T00:25:11;1.75;;;1.20;;
21432;SDS011;18592;49.708;10.900;2022-07-04T00:27:13;2.28;;;1.20;;
21432;SDS011;18592;49.708;10.900;2022-07-04T00:29:15;1.55;;;1.30;;
21432;SDS011;18592;49.708;10.900;2022-07-04T00:31:17;1.67;;;1.25;;
21432;SDS011;18592;49.708;10.900;2022-07-04T00:33:18;1.88;;;1.30;;
21432;SDS011;18592;49.708;10.900;2022-07-04T00:35:20;3.22;;;1.20;;
21432;SDS011;18592;49.708;10.900;2022-07-04T00:37:21;1.50;;;1.20;;
21432;SDS011;18592;49.708;10.900;2022-07-04T00:39:23;1.90;;;1.52;;
21432;SDS011;18592;49.708;10.900;2022-07-04T00:41:25;1.25;;;1.15;;
21432;SDS011;18592;49.708;10.900;2022-07-04T00:43:27;1.27;;;1.15;;
21432;SDS011;18592;49.708;10.900;2022-07-04T00:45:29;1.35;;;1.20;;
21432;SDS011;18592;49.708;10.900;2022-07-04T00:47:32;1.13;;;1.10;;
21432;SDS011;18592;49.708;10.900;2022-07-04T00:49:34;2.00;;;1.48;;
21432;SDS011;18592;49.708;10.900;2022-07-04T00:51:37;3.25;;;1.50;;
21432;SDS011;18592;49.708;10.900;2022-07-04T00:53:40;1.65;;;1.50;;
21432;SDS011;18592;49.708;10.900;2022-07-04T00:55:41;1.30;;;1.20;;
21432;SDS011;18592;49.708;10.900;2022-07-04T00:57:45;1.35;;;1.25;;
21432;SDS011;18592;49.708;10.900;2022-07-04T00:59:46;1.55;;;1.30;;
21432;SDS011;18592;49.708;10.900;2022-07-04T01:01:49;2.38;;;1.23;;
21432;SDS011;18592;49.708;10.900;2022-07-04T01:03:51;1.23;;;1.13;;
21432;SDS011;18592;49.708;10.900;2022-07-04T01:05:53;1.52;;;1.20;;
21432;SDS011;18592;49.708;10.900;2022-07-04T01:07:54;1.77;;;1.25;;
21432;SDS011;18592;49.708;10.900;2022-07-04T01:09:57;1.20;;;1.10;;
21432;SDS011;18592;49.708;10.900;2022-07-04T01:11:58;1.30;;;1.15;;
21432;SDS011;18592;49.708;10.900;2022-07-04T01:14:00;2.15;;;1.45;;
21432;SDS011;18592;49.708;10.900;2022-07-04T01:16:02;3.05;;;1.50;;
21432;SDS011;18592;49.708;10.900;2022-07-04T01:18:05;1.20;;;1.10;;
21432;SDS011;18592;49.708;10.900;2022-07-04T01:20:10;2.13;;;1.30;;
21432;SDS011;18592;49.708;10.900;2022-07-04T01:22:15;1.50;;;1.20;;
21432;SDS011;18592;49.708;10.900;2022-07-04T01:24:18;2.17;;;1.33;;
21432;SDS011;18592;49.708;10.900;2022-07-04T01:26:19;1.60;;;1.10;;
21432;SDS011;18592;49.708;10.900;2022-07-04T01:28:22;1.75;;;1.48;;
21432;SDS011;18592;49.708;10.900;2022-07-04T01:30:25;1.67;;;1.25;;
21432;SDS011;18592;49.708;10.900;2022-07-04T01:32:27;1.85;;;1.20;;
21432;SDS011;18592;49.708;10.900;2022-07-04T01:34:29;1.52;;;1.40;;
21432;SDS011;18592;49.708;10.900;2022-07-04T01:36:30;1.25;;;1.15;;
21432;SDS011;18592;49.708;10.900;2022-07-04T01:38:32;2.20;;;1.23;;
21432;SDS011;18592;49.708;10.900;2022-07-04T01:40:34;1.60;;;1.35;;
21432;SDS011;18592;49.708;10.900;2022-07-04T01:42:35;1.80;;;1.30;;
21432;SDS011;18592;49.708;10.900;2022-07-04T01:44:37;1.33;;;1.23;;
21432;SDS011;18592;49.708;10.900;2022-07-04T01:46:38;1.75;;;1.20;;
21432;SDS011;18592;49.708;10.900;2022-07-04T01:48:40;2.47;;;1.67;;
21432;SDS011;18592;49.708;10.900;2022-07-04T01:50:42;1.50;;;1.35;;
21432;SDS011;18592;49.708;10.900;2022-07-04T01:52:43;1.67;;;1.20;;
21432;SDS011;18592;49.708;10.900;2022-07-04T01:54:45;1.27;;;1.17;;
21432;SDS011;18592;49.708;10.900;2022-07-04T01:56:47;1.85;;;1.30;;
21432;SDS011;18592;49.708;10.900;2022-07-04T01:58:49;1.50;;;1.40;;
21432;SDS011;18592;49.708;10.900;2022-07-04T02:00:50;1.40;;;1.15;;
21432;SDS011;18592;49.708;10.900;2022-07-04T02:03:11;1.20;;;1.10;;
21432;SDS011;18592;49.708;10.900;2022-07-04T02:05:12;1.40;;;1.25;;
21432;SDS011;18592;49.708;10.900;2022-07-04T02:07:14;1.27;;;1.17;;
21432;SDS011;18592;49.708;10.900;2022-07-04T02:09:16;1.35;;;1.10;;
21432;SDS011;18592;49.708;10.900;2022-07-04T02:11:17;1.60;;;1.48;;
21432;SDS011;18592;49.708;10.900;2022-07-04T02:13:19;1.15;;;1.05;;
21432;SDS011;18592;49.708;10.900;2022-07-04T02:15:21;2.28;;;1.40;;
21432;SDS011;18592;49.708;10.900;2022-07-04T02:17:22;1.45;;;1.35;;
21432;SDS011;18592;49.708;10.900;2022-07-04T02:19:24;2.05;;;1.50;;
21432;SDS011;18592;49.708;10.900;2022-07-04T02:21:25;3.78;;;1.30;;
21432;SDS011;18592;49.708;10.900;2022-07-04T02:23:27;2.50;;;1.42;;
21432;SDS011;18592;49.708;10.900;2022-07-04T02:25:28;1.88;;;1.50;;
21432;SDS011;18592;49.708;10.900;2022-07-04T02:27:30;1.88;;;1.27;;
21432;SDS011;18592;49.708;10.900;2022-07-04T02:29:32;2.00;;;1.30;;
21432;SDS011;18592;49.708;10.900;2022-07-04T02:31:33;1.95;;;1.45;;
21432;SDS011;18592;49.708;10.900;2022-07-04T02:33:35;2.90;;;1.50;;
21432;SDS011;18592;49.708;10.900;2022-07-04T02:35:38;1.55;;;1.38;;
21432;SDS011;18592;49.708;10.900;2022-07-04T02:37:39;2.03;;;1.60;;
21432;SDS011;18592;49.708;10.900;2022-07-04T02:39:41;1.63;;;1.40;;
21432;SDS011;18592;49.708;10.900;2022-07-04T02:41:43;1.98;;;1.38;;
21432;SDS011;18592;49.708;10.900;2022-07-04T02:43:44;2.53;;;1.35;;
21432;SDS011;18592;49.708;10.900;2022-07-04T02:45:46;1.15;;;1.00;;
21432;SDS011;18592;49.708;10.900;2022-07-04T02:47:48;1.63;;;1.35;;
21432;SDS011;18592;49.708;10.900;2022-07-04T02:49:50;3.30;;;1.40;;
21432;SDS011;18592;49.708;10.900;2022-07-04T02:51:51;1.40;;;1.30;;
21432;SDS011;18592;49.708;10.900;2022-07-04T02:53:53;3.47;;;1.40;;
21432;SDS011;18592;49.708;10.900;2022-07-04T02:55:55;1.40;;;1.30;;
21432;SDS011;18592;49.708;10.900;2022-07-04T02:57:57;1.10;;;1.02;;
21432;SDS011;18592;49.708;10.900;2022-07-04T02:59:58;2.30;;;1.20;;
21432;SDS011;18592;49.708;10.900;2022-07-04T03:02:00;2.30;;;1.40;;
21432;SDS011;18592;49.708;10.900;2022-07-04T03:04:02;1.55;;;1.40;;
21432;SDS011;18592;49.708;10.900;2022-07-04T03:06:08;1.58;;;1.30;;
21432;SDS011;18592;49.708;10.900;2022-07-04T03:08:11;2.83;;;1.23;;
21432;SDS011;18592;49.708;10.900;2022-07-04T03:10:12;1.50;;;1.40;;
21432;SDS011;18592;49.708;10.900;2022-07-04T03:12:13;1.48;;;1.30;;
21432;SDS011;18592;49.708;10.900;2022-07-04T03:14:15;1.98;;;1.30;;
21432;SDS011;18592;49.708;10.900;2022-07-04T03:16:17;2.03;;;1.30;;
21432;SDS011;18592;49.708;10.900;2022-07-04T03:18:19;3.25;;;1.25;;
21432;SDS011;18592;49.708;10.900;2022-07-04T03:20:20;2.10;;;1.25;;
21432;SDS011;18592;49.708;10.900;2022-07-04T03:22:22;1.33;;;1.23;;
21432;SDS011;18592;49.708;10.900;2022-07-04T03:24:23;1.60;;;1.38;;
21432;SDS011;18592;49.708;10.900;2022-07-04T03:26:25;2.47;;;1.33;;
21432;SDS011;18592;49.708;10.900;2022-07-04T03:28:28;2.38;;;1.23;;
21432;SDS011;18592;49.708;10.900;2022-07-04T03:30:30;2.53;;;1.20;;
21432;SDS011;18592;49.708;10.900;2022-07-04T03:32:31;2.97;;;1.20;;
21432;SDS011;18592;49.708;10.900;2022-07-04T03:34:33;1.75;;;1.65;;
21432;SDS011;18592;49.708;10.900;2022-07-04T03:36:34;1.23;;;1.13;;
21432;SDS011;18592;49.708;10.900;2022-07-04T03:38:36;1.50;;;1.40;;
21432;SDS011;18592;49.708;10.900;2022-07-04T03:40:38;1.58;;;1.48;;
21432;SDS011;18592;49.708;10.900;2022-07-04T03:42:39;1.92;;;1.45;;
21432;SDS011;18592;49.708;10.900;2022-07-04T03:44:41;1.20;;;1.10;;
21432;SDS011;18592;49.708;10.900;2022-07-04T03:46:43;1.30;;;1.20;;
21432;SDS011;18592;49.708;10.900;2022-07-04T03:48:44;2.75;;;1.45;;
21432;SDS011;18592;49.708;10.900;2022-07-04T03:50:46;2.28;;;1.38;;
21432;SDS011;18592;49.708;10.900;2022-07-04T03:52:47;2.22;;;1.38;;
21432;SDS011;18592;49.708;10.900;2022-07-04T03:54:49;1.52;;;1.33;;
21432;SDS011;18592;49.708;10.900;2022-07-04T03:56:51;1.75;;;1.50;;
21432;SDS011;18592;49.708;10.900;2022-07-04T03:58:53;2.72;;;1.42;;
21432;SDS011;18592;49.708;10.900;2022-07-04T04:00:54;1.65;;;1.33;;
21432;SDS011;18592;49.708;10.900;2022-07-04T04:02:56;1.50;;;1.40;;
21432;SDS011;18592;49.708;10.900;2022-07-04T04:04:58;2.15;;;1.38;;
21432;SDS011;18592;49.708;10.900;2022-07-04T04:07:18;1.52;;;1.33;;
21432;SDS011;18592;49.708;10.900;2022-07-04T04:09:19;2.17;;;1.50;;
21432;SDS011;18592;49.708;10.900;2022-07-04T04:11:22;2.22;;;1.60;;
21432;SDS011;18592;49.708;10.900;2022-07-04T04:13:23;1.33;;;1.23;;
21432;SDS011;18592;49.708;10.900;2022-07-04T04:15:25;1.63;;;1.50;;
21432;SDS011;18592;49.708;10.900;2022-07-04T04:17:27;2.08;;;1.30;;
21432;SDS011;18592;49.708;10.900;2022-07-04T04:19:28;1.50;;;1.40;;
21432;SDS011;18592;49.708;10.900;2022-07-04T04:21:30;2.92;;;1.50;;
21432;SDS011;18592;49.708;10.900;2022-07-04T04:23:32;1.60;;;1.50;;
21432;SDS011;18592;49.708;10.900;2022-07-04T04:25:35;1.75;;;1.30;;
21432;SDS011;18592;49.708;10.900;2022-07-04T04:27:36;1.60;;;1.50;;
21432;SDS011;18592;49.708;10.900;2022-07-04T04:29:38;1.40;;;1.30;;
21432;SDS011;18592;49.708;10.900;2022-07-04T04:31:39;1.42;;;1.33;;
21432;SDS011;18592;49.708;10.900;2022-07-04T04:33:41;1.67;;;1.50;;
21432;SDS011;18592;49.708;10.900;2022-07-04T04:35:43;1.98;;;1.33;;
21432;SDS011;18592;49.708;10.900;2022-07-04T04:37:44;1.70;;;1.60;;
21432;SDS011;18592;49.708;10.900;2022-07-04T04:39:46;1.58;;;1.40;;
21432;SDS011;18592;49.708;10.900;2022-07-04T04:41:48;1.45;;;1.30;;
21432;SDS011;18592;49.708;10.900;2022-07-04T04:43:50;1.70;;;1.30;;
21432;SDS011;18592;49.708;10.900;2022-07-04T04:45:53;2.13;;;1.40;;
21432;SDS011;18592;49.708;10.900;2022-07-04T04:47:55;1.77;;;1.42;;
21432;SDS011;18592;49.708;10.900;2022-07-04T04:49:57;1.45;;;1.35;;
21432;SDS011;18592;49.708;10.900;2022-07-04T04:51:58;1.83;;;1.50;;
21432;SDS011;18592;49.708;10.900;2022-07-04T04:54:00;3.38;;;1.65;;
21432;SDS011;18592;49.708;10.900;2022-07-04T04:56:07;1.95;;;1.40;;
21432;SDS011;18592;49.708;10.900;2022-07-04T04:58:08;1.30;;;1.20;;
21432;SDS011;18592;49.708;10.900;2022-07-04T05:00:11;1.50;;;1.30;;
21432;SDS011;18592;49.708;10.900;2022-07-04T05:02:13;1.95;;;1.38;;
21432;SDS011;18592;49.708;10.900;2022-07-04T05:04:17;3.47;;;1.70;;
21432;SDS011;18592;49.708;10.900;2022-07-04T05:06:19;2.08;;;1.45;;
21432;SDS011;18592;49.708;10.900;2022-07-04T05:08:21;1.40;;;1.30;;
21432;SDS011;18592;49.708;10.900;2022-07-04T05:10:28;1.88;;;1.30;;
21432;SDS011;18592;49.708;10.900;2022-07-04T05:12:30;3.70;;;1.52;;
21432;SDS011;18592;49.708;10.900;2022-07-04T05:14:38;1.35;;;1.00;;
21432;SDS011;18592;49.708;10.900;2022-07-04T05:16:39;2.10;;;1.40;;
21432;SDS011;18592;49.708;10.900;2022-07-04T05:18:42;1.33;;;1.23;;
21432;SDS011;18592;49.708;10.900;2022-07-04T05:20:43;2.55;;;1.10;;
21432;SDS011;18592;49.708;10.900;2022-07-04T05:22:47;2.65;;;1.38;;
21432;SDS011;18592;49.708;10.900;2022-07-04T05:24:52;1.65;;;1.50;;
21432;SDS011;18592;49.708;10.900;2022-07-04T05:26:54;2.75;;;1.38;;
21432;SDS011;18592;49.708;10.900;2022-07-04T05:28:59;2.00;;;1.40;;
21432;SDS011;18592;49.708;10.900;2022-07-04T05:31:00;1.30;;;1.20;;
21432;SDS011;18592;49.708;10.900;2022-07-04T05:33:02;2.33;;;1.40;;
21432;SDS011;18592;49.708;10.900;2022-07-04T05:35:04;1.30;;;1.20;;
21432;SDS011;18592;49.708;10.900;2022-07-04T05:37:06;2.05;;;1.25;;
21432;SDS011;18592;49.708;10.900;2022-07-04T05:39:11;3.17;;;1.20;;
21432;SDS011;18592;49.708;10.900;2022-07-04T05:41:13;3.92;;;1.40;;
21432;SDS011;18592;49.708;10.900;2022-07-04T05:43:17;1.67;;;1.20;;
21432;SDS011;18592;49.708;10.900;2022-07-04T05:45:19;1.73;;;1.40;;
21432;SDS011;18592;49.708;10.900;2022-07-04T05:47:20;1.83;;;1.13;;
21432;SDS011;18592;49.708;10.900;2022-07-04T05:49:26;1.20;;;1.10;;
21432;SDS011;18592;49.708;10.900;2022-07-04T05:51:28;1.80;;;1.40;;
21432;SDS011;18592;49.708;10.900;2022-07-04T05:53:30;1.25;;;1.10;;
21432;SDS011;18592;49.708;10.900;2022-07-04T05:55:31;2.75;;;1.38;;
21432;SDS011;18592;49.708;10.900;2022-07-04T05:57:36;2.17;;;1.10;;
21432;SDS011;18592;49.708;10.900;2022-07-04T05:59:45;1.33;;;1.15;;
21432;SDS011;18592;49.708;10.900;2022-07-04T06:01:46;1.35;;;1.20;;
21432;SDS011;18592;49.708;10.900;2022-07-04T06:06:16;1.80;;;1.20;;
21432;SDS011;18592;49.708;10.900;2022-07-04T06:08:18;1.58;;;1.20;;
21432;SDS011;18592;49.708;10.900;2022-07-04T06:10:21;2.10;;;1.40;;
21432;SDS011;18592;49.708;10.900;2022-07-04T06:12:23;1.80;;;1.27;;
21432;SDS011;18592;49.708;10.900;2022-07-04T06:14:24;1.58;;;1.20;;
21432;SDS011;18592;49.708;10.900;2022-07-04T06:16:26;2.50;;;1.20;;
21432;SDS011;18592;49.708;10.900;2022-07-04T06:18:28;1.52;;;0.90;;
21432;SDS011;18592;49.708;10.900;2022-07-04T06:20:31;1.50;;;1.35;;
21432;SDS011;18592;49.708;10.900;2022-07-04T06:22:42;4.43;;;2.20;;
21432;SDS011;18592;49.708;10.900;2022-07-04T06:24:48;4.50;;;2.17;;
21432;SDS011;18592;49.708;10.900;2022-07-04T06:26:49;5.22;;;2.63;;
21432;SDS011;18592;49.708;10.900;2022-07-04T06:28:51;5.75;;;2.45;;
21432;SDS011;18592;49.708;10.900;2022-07-04T06:30:53;5.05;;;2.40;;
21432;SDS011;18592;49.708;10.900;2022-07-04T06:32:55;3.83;;;2.50;;
21432;SDS011;18592;49.708;10.900;2022-07-04T06:34:58;3.33;;;2.05;;
21432;SDS011;18592;49.708;10.900;2022-07-04T06:37:18;3.47;;;2.10;;
21432;SDS011;18592;49.708;10.900;2022-07-04T06:39:20;2.65;;;1.90;;
21432;SDS011;18592;49.708;10.900;2022-07-04T06:41:22;1.90;;;1.60;;
21432;SDS011;18592;49.708;10.900;2022-07-04T06:43:24;3.08;;;1.90;;
21432;SDS011;18592;49.708;10.900;2022-07-04T06:45:27;1.52;;;1.40;;
21432;SDS011;18592;49.708;10.900;2022-07-04T06:47:29;1.90;;;1.40;;
21432;SDS011;18592;49.708;10.900;2022-07-04T06:49:32;2.28;;;1.60;;
21432;SDS011;18592;49.708;10.900;2022-07-04T06:51:36;3.17;;;1.67;;
21432;SDS011;18592;49.708;10.900;2022-07-04T06:53:39;2.15;;;1.50;;
21432;SDS011;18592;49.708;10.900;2022-07-04T06:55:42;2.85;;;2.00;;
21432;SDS011;18592;49.708;10.900;2022-07-04T06:57:46;1.63;;;1.52;;
21432;SDS011;18592;49.708;10.900;2022-07-04T06:59:48;2.05;;;1.88;;
21432;SDS011;18592;49.708;10.900;2022-07-04T07:01:50;3.05;;;2.13;;
21432;SDS011;18592;49.708;10.900;2022-07-04T07:03:51;1.85;;;1.67;;
21432;SDS011;18592;49.708;10.900;2022-07-04T07:06:02;1.95;;;1.85;;
21432;SDS011;18592;49.708;10.900;2022-07-04T07:08:08;2.10;;;1.90;;
21432;SDS011;18592;49.708;10.900;2022-07-04T07:10:10;2.17;;;1.73;;
21432;SDS011;18592;49.708;10.900;2022-07-04T07:12:12;2.28;;;2.03;;
21432;SDS011;18592;49.708;10.900;2022-07-04T07:14:13;2.20;;;2.00;;
21432;SDS011;18592;49.708;10.900;2022-07-04T07:16:15;2.00;;;1.90;;
21432;SDS011;18592;49.708;10.900;2022-07-04T07:18:17;2.22;;;2.03;;
21432;SDS011;18592;49.708;10.900;2022-07-04T07:20:18;1.90;;;1.80;;
21432;SDS011;18592;49.708;10.900;2022-07-04T07:22:20;3.17;;;2.10;;
21432;SDS011;18592;49.708;10.900;2022-07-04T07:24:22;2.65;;;2.10;;
21432;SDS011;18592;49.708;10.900;2022-07-04T07:26:30;2.60;;;2.15;;
21432;SDS011;18592;49.708;10.900;2022-07-04T07:28:35;2.10;;;1.90;;
21432;SDS011;18592;49.708;10.900;2022-07-04T07:30:40;1.90;;;1.80;;
21432;SDS011;18592;49.708;10.900;2022-07-04T07:32:41;2.30;;;2.10;;
21432;SDS011;18592;49.708;10.900;2022-07-04T07:34:43;2.83;;;2.22;;
21432;SDS011;18592;49.708;10.900;2022-07-04T07:36:46;2.10;;;1.90;;
21432;SDS011;18592;49.708;10.900;2022-07-04T07:38:48;2.63;;;2.20;;
21432;SDS011;18592;49.708;10.900;2022-07-04T07:40:50;2.25;;;2.05;;
21432;SDS011;18592;49.708;10.900;2022-07-04T07:42:52;2.20;;;2.00;;
21432;SDS011;18592;49.708;10.900;2022-07-04T07:44:55;2.15;;;1.95;;
21432;SDS011;18592;49.708;10.900;2022-07-04T07:46:58;3.25;;;2.22;;
21432;SDS011;18592;49.708;10.900;2022-07-04T07:49:00;2.05;;;1.88;;
21432;SDS011;18592;49.708;10.900;2022-07-04T07:51:01;2.55;;;2.03;;
21432;SDS011;18592;49.708;10.900;2022-07-04T07:53:04;2.10;;;2.00;;
21432;SDS011;18592;49.708;10.900;2022-07-04T07:55:06;4.53;;;2.20;;
21432;SDS011;18592;49.708;10.900;2022-07-04T07:57:08;3.85;;;2.15;;
21432;SDS011;18592;49.708;10.900;2022-07-04T07:59:13;3.05;;;2.08;;
21432;SDS011;18592;49.708;10.900;2022-07-04T08:01:15;1.80;;;1.70;;
21432;SDS011;18592;49.708;10.900;2022-07-04T08:03:17;2.20;;;2.00;;
21432;SDS011;18592;49.708;10.900;2022-07-04T08:05:38;2.40;;;1.92;;
21432;SDS011;18592;49.708;10.900;2022-07-04T08:07:40;2.40;;;2.20;;
21432;SDS011;18592;49.708;10.900;2022-07-04T08:09:44;2.33;;;2.00;;
21432;SDS011;18592;49.708;10.900;2022-07-04T08:11:46;2.40;;;2.20;;
21432;SDS011;18592;49.708;10.900;2022-07-04T08:13:48;2.60;;;2.40;;
21432;SDS011;18592;49.708;10.900;2022-07-04T08:15:50;2.08;;;1.90;;
21432;SDS011;18592;49.708;10.900;2022-07-04T08:17:52;2.10;;;1.90;;
21432;SDS011;18592;49.708;10.900;2022-07-04T08:19:54;4.60;;;2.10;;
21432;SDS011;18592;49.708;10.900;2022-07-04T08:21:56;2.33;;;2.13;;
21432;SDS011;18592;49.708;10.900;2022-07-04T08:24:15;2.33;;;2.13;;
21432;SDS011;18592;49.708;10.900;2022-07-04T08:26:25;3.03;;;2.28;;
21432;SDS011;18592;49.708;10.900;2022-07-04T08:28:28;2.45;;;2.22;;
21432;SDS011;18592;49.708;10.900;2022-07-04T08:30:31;2.28;;;2.10;;
21432;SDS011;18592;49.708;10.900;2022-07-04T08:32:36;2.50;;;2.30;;
21432;SDS011;18592;49.708;10.900;2022-07-04T08:34:41;2.33;;;2.13;;
21432;SDS011;18592;49.708;10.900;2022-07-04T08:36:44;2.28;;;2.13;;
21432;SDS011;18592;49.708;10.900;2022-07-04T08:38:45;2.30;;;2.10;;
21432;SDS011;18592;49.708;10.900;2022-07-04T08:40:47;3.03;;;2.10;;
21432;SDS011;18592;49.708;10.900;2022-07-04T08:42:52;2.75;;;2.38;;
21432;SDS011;18592;49.708;10.900;2022-07-04T08:44:53;2.60;;;2.38;;
21432;SDS011;18592;49.708;10.900;2022-07-04T08:46:56;2.50;;;2.20;;
21432;SDS011;18592;49.708;10.900;2022-07-04T08:48:58;2.50;;;2.30;;
21432;SDS011;18592;49.708;10.900;2022-07-04T08:51:09;2.40;;;2.20;;
21432;SDS011;18592;49.708;10.900;2022-07-04T08:53:20;2.40;;;2.20;;
21432;SDS011;18592;49.708;10.900;2022-07-04T08:55:23;2.35;;;2.15;;
21432;SDS011;18592;49.708;10.900;2022-07-04T08:57:45;2.40;;;2.20;;
21432;SDS011;18592;49.708;10.900;2022-07-04T09:00:09;2.90;;;2.60;;
21432;SDS011;18592;49.708;10.900;2022-07-04T09:02:12;2.58;;;2.38;;
21432;SDS011;18592;49.708;10.900;2022-07-04T09:04:15;3.15;;;2.38;;
21432;SDS011;18592;49.708;10.900;2022-07-04T09:06:17;2.60;;;2.40;;
21432;SDS011;18592;49.708;10.900;2022-07-04T09:08:19;2.42;;;2.22;;
21432;SDS011;18592;49.708;10.900;2022-07-04T09:10:24;2.60;;;2.40;;
21432;SDS011;18592;49.708;10.900;2022-07-04T09:12:26;2.80;;;2.58;;
21432;SDS011;18592;49.708;10.900;2022-07-04T09:14:28;2.40;;;2.20;;
21432;SDS011;18592;49.708;10.900;2022-07-04T09:16:30;2.75;;;2.47;;
21432;SDS011;18592;49.708;10.900;2022-07-04T09:18:32;2.47;;;2.08;;
21432;SDS011;18592;49.708;10.900;2022-07-04T09:20:35;2.60;;;2.17;;
21432;SDS011;18592;49.708;10.900;2022-07-04T09:22:37;2.50;;;2.30;;
21432;SDS011;18592;49.708;10.900;2022-07-04T09:24:45;2.13;;;1.90;;
21432;SDS011;18592;49.708;10.900;2022-07-04T09:27:02;1.90;;;1.80;;
21432;SDS011;18592;49.708;10.900;2022-07-04T09:29:04;2.20;;;2.05;;
21432;SDS011;18592;49.708;10.900;2022-07-04T09:31:22;1.88;;;1.77;;
21432;SDS011;18592;49.708;10.900;2022-07-04T09:34:02;1.90;;;1.67;;
21432;SDS011;18592;49.708;10.900;2022-07-04T09:36:01;2.00;;;1.70;;
21432;SDS011;18592;49.708;10.900;2022-07-04T09:38:12;2.20;;;1.95;;
21432;SDS011;18592;49.708;10.900;2022-07-04T09:40:27;1.80;;;1.70;;
21432;SDS011;18592;49.708;10.900;2022-07-04T09:42:34;2.30;;;1.80;;
21432;SDS011;18592;49.708;10.900;2022-07-04T09:44:45;2.03;;;1.83;;
21432;SDS011;18592;49.708;10.900;2022-07-04T09:46:50;1.80;;;1.70;;
21432;SDS011;18592;49.708;10.900;2022-07-04T09:48:53;2.33;;;1.75;;
21432;SDS011;18592;49.708;10.900;2022-07-04T09:50:54;1.77;;;1.67;;
21432;SDS011;18592;49.708;10.900;2022-07-04T09:52:57;3.20;;;1.80;;
21432;SDS011;18592;49.708;10.900;2022-07-04T09:55:01;2.40;;;1.80;;
21432;SDS011;18592;49.708;10.900;2022-07-04T09:57:07;3.72;;;1.88;;
21432;SDS011;18592;49.708;10.900;2022-07-04T09:59:08;2.00;;;1.60;;
21432;SDS011;18592;49.708;10.900;2022-07-04T10:01:10;2.05;;;1.85;;
21432;SDS011;18592;49.708;10.900;2022-07-04T10:08:19;2.28;;;1.58;;
21432;SDS011;18592;49.708;10.900;2022-07-04T10:10:25;1.75;;;1.65;;
21432;SDS011;18592;49.708;10.900;2022-07-04T10:12:43;1.75;;;1.63;;
21432;SDS011;18592;49.708;10.900;2022-07-04T10:14:53;2.10;;;1.80;;
21432;SDS011;18592;49.708;10.900;2022-07-04T10:16:56;1.80;;;1.70;;
21432;SDS011;18592;49.708;10.900;2022-07-04T10:18:58;1.63;;;1.52;;
21432;SDS011;18592;49.708;10.900;2022-07-04T10:21:01;2.28;;;1.50;;
21432;SDS011;18592;49.708;10.900;2022-07-04T10:23:03;2.22;;;2.03;;
21432;SDS011;18592;49.708;10.900;2022-07-04T10:25:05;1.65;;;1.50;;
21432;SDS011;18592;49.708;10.900;2022-07-04T10:27:08;2.13;;;1.60;;
21432;SDS011;18592;49.708;10.900;2022-07-04T10:29:11;1.40;;;1.30;;
21432;SDS011;18592;49.708;10.900;2022-07-04T10:31:13;1.88;;;1.50;;
21432;SDS011;18592;49.708;10.900;2022-07-04T10:33:18;1.40;;;1.30;;
21432;SDS011;18592;49.708;10.900;2022-07-04T10:38:01;1.52;;;1.42;;
21432;SDS011;18592;49.708;10.900;2022-07-04T10:40:10;2.53;;;1.65;;
21432;SDS011;18592;49.708;10.900;2022-07-04T10:42:21;1.50;;;1.40;;
21432;SDS011;18592;49.708;10.900;2022-07-04T10:44:25;1.30;;;1.20;;
21432;SDS011;18592;49.708;10.900;2022-07-04T10:46:35;1.40;;;1.30;;
21432;SDS011;18592;49.708;10.900;2022-07-04T10:49:16;2.25;;;1.40;;
21432;SDS011;18592;49.708;10.900;2022-07-04T10:53:59;1.48;;;1.20;;
21432;SDS011;18592;49.708;10.900;2022-07-04T10:58:40;2.55;;;1.20;;
21432;SDS011;18592;49.708;10.900;2022-07-04T11:01:09;1.63;;;1.25;;
21432;SDS011;18592;49.708;10.900;2022-07-04T11:03:14;1.20;;;1.10;;
21432;SDS011;18592;49.708;10.900;2022-07-04T11:05:26;2.03;;;1.45;;
21432;SDS011;18592;49.708;10.900;2022-07-04T11:09:38;1.48;;;1.13;;
21432;SDS011;18592;49.708;10.900;2022-07-04T11:11:59;2.03;;;1.20;;
21432;SDS011;18592;49.708;10.900;2022-07-04T11:14:29;1.48;;;1.30;;
21432;SDS011;18592;49.708;10.900;2022-07-04T11:16:50;2.30;;;1.50;;
21432;SDS011;18592;49.708;10.900;2022-07-04T11:18:54;1.33;;;1.23;;
21432;SDS011;18592;49.708;10.900;2022-07-04T11:20:56;1.52;;;1.20;;
21432;SDS011;18592;49.708;10.900;2022-07-04T11:25:06;2.25;;;1.23;;
21432;SDS011;18592;49.708;10.900;2022-07-04T11:27:11;1.50;;;1.40;;
21432;SDS011;18592;49.708;10.900;2022-07-04T11:29:13;1.30;;;1.20;;
21432;SDS011;18592;49.708;10.900;2022-07-04T11:31:15;2.47;;;1.35;;
21432;SDS011;18592;49.708;10.900;2022-07-04T11:33:17;1.40;;;1.30;;
21432;SDS011;18592;49.708;10.900;2022-07-04T11:35:23;1.73;;;1.15;;
21432;SDS011;18592;49.708;10.900;2022-07-04T11:37:25;1.50;;;1.33;;
21432;SDS011;18592;49.708;10.900;2022-07-04T11:39:27;2.53;;;1.30;;
21432;SDS011;18592;49.708;10.900;2022-07-04T11:41:36;1.20;;;1.10;;
21432;SDS011;18592;49.708;10.900;2022-07-04T11:44:05;1.40;;;1.25;;
21432;SDS011;18592;49.708;10.900;2022-07-04T11:46:27;1.40;;;1.30;;
21432;SDS011;18592;49.708;10.900;2022-07-04T11:48:29;1.60;;;1.00;;
21432;SDS011;18592;49.708;10.900;2022-07-04T11:50:30;2.85;;;1.63;;
21432;SDS011;18592;49.708;10.900;2022-07-04T11:52:42;1.30;;;1.20;;
21432;SDS011;18592;49.708;10.900;2022-07-04T11:55:06;1.77;;;1.20;;
21432;SDS011;18592;49.708;10.900;2022-07-04T11:57:15;1.92;;;1.30;;
21432;SDS011;18592;49.708;10.900;2022-07-04T11:59:23;1.60;;;1.50;;
21432;SDS011;18592;49.708;10.900;2022-07-04T12:01:30;1.55;;;1.15;;
21432;SDS011;18592;49.708;10.900;2022-07-04T12:03:32;1.60;;;1.10;;
21432;SDS011;18592;49.708;10.900;2022-07-04T12:05:37;1.52;;;1.30;;
21432;SDS011;18592;49.708;10.900;2022-07-04T12:07:40;1.98;;;1.38;;
21432;SDS011;18592;49.708;10.900;2022-07-04T12:10:07;1.30;;;1.13;;
21432;SDS011;18592;49.708;10.900;2022-07-04T12:12:12;2.33;;;1.20;;
21432;SDS011;18592;49.708;10.900;2022-07-04T12:14:17;1.27;;;1.10;;
21432;SDS011;18592;49.708;10.900;2022-07-04T12:16:20;1.15;;;0.90;;
21432;SDS011;18592;49.708;10.900;2022-07-04T12:18:26;2.05;;;1.15;;
21432;SDS011;18592;49.708;10.900;2022-07-04T12:20:30;1.20;;;1.10;;
21432;SDS011;18592;49.708;10.900;2022-07-04T12:22:34;1.50;;;1.10;;
21432;SDS011;18592;49.708;10.900;2022-07-04T12:24:42;0.98;;;0.93;;
21432;SDS011;18592;49.708;10.900;2022-07-04T12:26:45;0.98;;;0.98;;
21432;SDS011;18592;49.708;10.900;2022-07-04T12:28:48;1.40;;;1.08;;
21432;SDS011;18592;49.708;10.900;2022-07-04T12:30:51;1.77;;;1.10;;
21432;SDS011;18592;49.708;10.900;2022-07-04T12:33:01;0.80;;;0.80;;
21432;SDS011;18592;49.708;10.900;2022-07-04T12:38:08;1.23;;;0.95;;